Time;durP1;ratioP1;P1;durP2;ratioP2;P2;SDS_P1;SDS_P2;PMS_P1;PMS_P2;Temp;Humidity;BMP_temperature;BMP_pressure;BME280_temperature;BME280_humidity;BME280_pressure;Samples;Min_cycle;Max_cycle;Signal;HPM_P1;HPM_P2
2023/02/26 00:01:11;;;;;;;;;7.67;7.33;;;;;5.35;97.45;100865.72;4948518;28;45466;-82
2023/02/26 00:03:37;;;;;;;;;5.00;5.00;;;;;5.30;96.86;100877.88;4929290;28;45354;-82
2023/02/26 00:06:02;;;;;;;;;5.00;5.00;;;;;5.22;96.92;100864.38;4928241;28;45930;-81
2023/02/26 00:08:30;;;;;;;;;0.67;0.67;;;;;5.12;95.65;100863.13;4955660;28;46701;-82
2023/02/26 00:10:56;;;;;;;;;8.33;8.33;;;;;5.16;96.13;100879.97;4965218;28;45341;-82
2023/02/26 00:13:22;;;;;;;;;8.33;8.33;;;;;5.18;96.61;100880.94;4967313;28;45475;-82
2023/02/26 00:15:57;;;;;;;;;10.00;6.00;;;;;5.24;96.31;100889.06;4967032;28;45489;-83
2023/02/26 00:18:23;;;;;;;;;6.00;6.00;;;;;5.15;95.87;100889.63;4973248;28;45302;-82
2023/02/26 00:20:49;;;;;;;;;7.33;6.33;;;;;5.12;95.66;100907.06;4984237;28;45483;-82
2023/02/26 00:23:15;;;;;;;;;7.00;6.00;;;;;5.09;95.38;100909.56;4970834;28;45501;-83
2023/02/26 00:25:41;;;;;;;;;10.33;6.33;;;;;5.04;94.79;100900.59;4985853;28;45416;-82
2023/02/26 00:28:08;;;;;;;;;7.33;6.33;;;;;5.04;96.20;100917.31;4985735;28;46773;-82
2023/02/26 00:30:34;;;;;;;;;5.67;5.67;;;;;5.00;95.80;100932.09;4968369;28;45390;-82
2023/02/26 00:33:01;;;;;;;;;6.67;5.00;;;;;4.97;94.72;100926.72;4970672;28;44736;-83
2023/02/26 00:35:26;;;;;;;;;6.33;5.33;;;;;4.92;95.87;100925.63;4985980;28;45072;-83
2023/02/26 00:38:01;;;;;;;;;6.00;5.33;;;;;4.97;94.26;100931.09;4972518;28;45529;-82
2023/02/26 00:40:29;;;;;;;;;15.67;7.67;;;;;4.92;95.85;100938.78;4971407;28;45606;-81
2023/02/26 00:42:55;;;;;;;;;5.67;5.67;;;;;4.86;94.98;100932.38;4973466;28;44873;-82
2023/02/26 00:45:21;;;;;;;;;6.00;6.00;;;;;4.81;93.76;100934.84;4972689;28;45584;-82
2023/02/26 00:48:06;;;;;;;;;5.67;5.67;;;;;4.87;93.36;100940.38;4972023;28;45427;-83
2023/02/26 00:50:32;;;;;;;;;7.00;5.33;;;;;4.79;93.77;100947.06;4971604;28;45696;-83
2023/02/26 00:53:53;;;;;;;;;5.67;5.67;;;;;4.79;92.74;100945.31;4986212;28;45496;-81
2023/02/26 00:56:22;;;;;;;;;6.00;5.67;;;;;4.75;93.55;100937.22;4970654;28;45502;-83
2023/02/26 00:58:47;;;;;;;;;6.00;6.00;;;;;4.67;93.79;100942.19;4986538;28;47129;-83
2023/02/26 01:01:13;;;;;;;;;6.00;6.00;;;;;4.66;92.18;100944.75;4970271;28;45301;-83
2023/02/26 01:03:38;;;;;;;;;5.00;5.00;;;;;4.60;92.94;100925.25;4971576;28;45708;-83
2023/02/26 01:06:09;;;;;;;;;4.00;4.00;;;;;4.54;93.41;100922.31;4971512;28;45376;-82
2023/02/26 01:08:46;;;;;;;;;5.67;5.67;;;;;4.69;92.80;100945.78;4971366;28;45117;-82
2023/02/26 01:11:12;;;;;;;;;10.00;5.67;;;;;4.59;93.33;100933.06;4968358;28;44790;-82
2023/02/26 01:13:38;;;;;;;;;4.00;3.33;;;;;4.64;92.76;100946.41;4969932;28;45366;-81
2023/02/26 01:16:10;;;;;;;;;2.67;2.67;;;;;4.70;92.75;100950.19;4969153;28;45725;-82
2023/02/26 01:18:49;;;;;;;;;4.67;4.67;;;;;4.65;91.77;100949.13;4966089;28;47279;-81
2023/02/26 01:21:29;;;;;;;;;3.33;3.33;;;;;4.61;91.56;100955.09;4966249;28;45644;-82
2023/02/26 01:23:55;;;;;;;;;4.33;4.33;;;;;4.51;91.77;100947.66;4965998;28;45357;-81
2023/02/26 01:26:20;;;;;;;;;6.33;6.33;;;;;4.50;92.60;100946.72;4966234;28;45386;-82
2023/02/26 01:28:46;;;;;;;;;2.00;2.00;;;;;4.48;91.80;100945.78;4945253;28;46603;-83
2023/02/26 01:31:30;;;;;;;;;4.33;4.33;;;;;4.52;92.01;100947.69;4962984;28;44986;-80
2023/02/26 01:34:13;;;;;;;;;7.33;5.67;;;;;4.48;92.07;100945.78;4945998;28;45361;-82
2023/02/26 01:36:48;;;;;;;;;7.33;6.00;;;;;4.41;92.26;100938.47;4950079;28;45434;-82
2023/02/26 01:39:23;;;;;;;;;5.33;5.33;;;;;4.42;91.48;100942.88;4951525;28;44978;-83
2023/02/26 01:41:53;;;;;;;;;5.50;5.50;;;;;4.42;93.12;100940.25;4950340;28;45601;-81
2023/02/26 01:44:22;;;;;;;;;8.33;6.33;;;;;4.42;92.31;100956.03;4949761;28;44780;-82
2023/02/26 01:47:14;;;;;;;;;7.33;6.00;;;;;4.33;91.61;100950.41;4948192;28;45483;-83
2023/02/26 01:49:41;;;;;;;;;1.00;1.00;;;;;4.22;92.00;100963.09;4945318;28;47024;-83
2023/02/26 01:52:45;;;;;;;;;4.33;4.33;;;;;4.34;92.40;100965.34;4950750;28;45919;-83
2023/02/26 01:55:13;;;;;;;;;8.33;6.00;;;;;4.34;92.75;100968.00;4947922;28;45457;-81
2023/02/26 01:57:39;;;;;;;;;7.00;6.33;;;;;4.28;93.39;100973.00;4946867;28;45531;-84
2023/02/26 02:00:05;;;;;;;;;5.33;5.33;;;;;4.27;93.01;100971.22;4946643;28;45982;-82
2023/02/26 02:02:31;;;;;;;;;7.33;5.67;;;;;4.27;93.78;100981.75;4946032;28;45332;-81
2023/02/26 02:05:03;;;;;;;;;6.00;6.00;;;;;4.26;92.67;100972.03;4946379;28;45756;-81
2023/02/26 02:07:30;;;;;;;;;6.00;4.00;;;;;4.17;93.92;100965.53;4946103;28;45495;-82
2023/02/26 02:09:56;;;;;;;;;5.00;5.00;;;;;4.21;94.12;100964.84;4945993;28;47522;-83
2023/02/26 02:12:33;;;;;;;;;8.67;6.00;;;;;4.29;93.35;100966.91;4945255;28;45849;-83
2023/02/26 02:15:11;;;;;;;;;3.33;3.33;;;;;4.27;93.55;100976.47;4946880;28;45369;-82
2023/02/26 02:17:52;;;;;;;;;4.33;4.33;;;;;4.20;92.51;100981.47;4947865;28;45545;-82
2023/02/26 02:20:55;;;;;;;;;2.00;2.00;;;;;4.23;93.32;100980.69;4948473;28;45371;-82
2023/02/26 02:23:38;;;;;;;;;5.00;5.00;;;;;4.14;93.29;100970.69;4946554;28;45751;-82
2023/02/26 02:26:33;;;;;;;;;4.33;4.33;;;;;4.18;93.80;100977.88;4949295;28;45498;-82
2023/02/26 02:29:26;;;;;;;;;3.33;3.33;;;;;4.19;93.99;100992.81;4946171;28;45627;-82
2023/02/26 02:32:18;;;;;;;;;5.00;5.00;;;;;4.08;93.51;100975.69;4945475;28;46834;-82
2023/02/26 02:35:11;;;;;;;;;4.33;4.33;;;;;4.12;92.65;100980.25;4944718;28;45472;-83
2023/02/26 02:38:03;;;;;;;;;4.00;4.00;;;;;4.04;93.23;100981.63;4951376;28;44770;-82
2023/02/26 02:40:33;;;;;;;;;5.00;5.00;;;;;3.96;92.76;100975.16;4935033;28;45511;-82
2023/02/26 02:43:08;;;;;;;;;4.00;4.00;;;;;3.93;93.84;100973.25;4947797;28;45322;-82
2023/02/26 02:45:43;;;;;;;;;6.67;5.00;;;;;3.98;93.83;100979.63;4948085;28;45466;-82
2023/02/26 02:48:24;;;;;;;;;4.00;4.00;;;;;3.99;94.00;100983.16;4947590;28;45456;-83
2023/02/26 02:51:29;;;;;;;;;2.00;2.00;;;;;4.02;93.95;100985.94;4948139;28;45416;-83
2023/02/26 02:54:05;;;;;;;;;3.33;3.33;;;;;4.01;93.80;100999.91;4888319;29;46093;-83
2023/02/26 02:56:40;;;;;;;;;4.67;4.67;;;;;3.98;92.98;100995.41;4890498;29;45271;-82
2023/02/26 02:59:37;;;;;;;;;4.00;4.00;;;;;3.93;93.29;100996.03;4889063;29;45448;-83
2023/02/26 03:02:17;;;;;;;;;5.33;4.33;;;;;3.84;93.07;100988.66;4801143;29;45523;-81
2023/02/26 03:04:43;;;;;;;;;3.33;3.33;;;;;3.78;93.25;101002.41;4830318;29;45419;-81
2023/02/26 03:07:09;;;;;;;;;7.33;7.33;;;;;3.73;93.81;101009.19;4830106;29;45408;-82
2023/02/26 03:09:35;;;;;;;;;2.00;2.00;;;;;3.68;93.09;100989.66;4812458;29;45576;-84
2023/02/26 03:12:00;;;;;;;;;4.33;4.33;;;;;3.73;93.40;101003.91;4812922;29;45486;-83
2023/02/26 03:14:26;;;;;;;;;4.00;2.00;;;;;3.68;94.02;101002.81;4812475;29;45576;-82
2023/02/26 03:17:29;;;;;;;;;4.67;4.33;;;;;3.85;94.07;101013.22;4812149;29;45377;-82
2023/02/26 03:20:07;;;;;;;;;4.33;4.33;;;;;3.79;93.31;101012.09;4812930;29;45397;-83
2023/02/26 03:23:00;;;;;;;;;2.00;2.00;;;;;3.73;93.63;101010.91;4813847;29;45572;-83
2023/02/26 03:25:31;;;;;;;;;4.33;4.33;;;;;3.62;94.86;101010.44;4811984;29;45474;-82
2023/02/26 03:28:18;;;;;;;;;4.00;4.00;;;;;3.67;94.97;101016.78;4816750;29;44827;-82
2023/02/26 03:31:09;;;;;;;;;5.00;4.67;;;;;3.53;94.83;101000.38;4830385;29;45498;-82
2023/02/26 03:34:00;;;;;;;;;4.00;4.00;;;;;3.62;95.11;101014.81;4830658;29;45720;-82
2023/02/26 03:36:34;;;;;;;;;2.00;2.00;;;;;3.55;95.68;101022.38;4830435;29;45887;-82
2023/02/26 03:39:05;;;;;;;;;5.00;4.00;;;;;3.54;95.71;101012.69;4944743;28;45525;-82
2023/02/26 03:41:51;;;;;;;;;4.67;3.33;;;;;3.46;95.92;101015.81;4928680;28;45387;-82
2023/02/26 03:44:34;;;;;;;;;5.00;5.00;;;;;3.48;95.82;101006.25;4945585;28;45570;-84
2023/02/26 03:47:07;;;;;;;;;4.00;4.00;;;;;3.52;95.96;101010.84;4926731;28;47166;-82
2023/02/26 03:49:44;;;;;;;;;3.33;3.33;;;;;3.49;95.73;101011.56;4929604;28;45428;-82
2023/02/26 03:52:12;;;;;;;;;5.00;5.00;;;;;3.54;95.66;101024.97;4932083;28;45498;-82
2023/02/26 03:57:59;;;;;;;;;2.00;2.00;;;;;3.44;95.61;101026.25;4947408;28;44909;-82
2023/02/26 04:00:27;;;;;;;;;4.33;4.33;;;;;3.49;95.50;101031.72;4951316;28;45216;-82
2023/02/26 04:03:07;;;;;;;;;3.33;3.33;;;;;3.59;95.35;101036.56;4949126;28;45469;-82
2023/02/26 04:05:39;;;;;;;;;4.00;4.00;;;;;3.56;95.04;101041.72;4932790;28;45431;-82
2023/02/26 04:08:07;;;;;;;;;4.00;4.00;;;;;3.53;95.17;101025.75;4948719;28;45550;-81
2023/02/26 04:10:41;;;;;;;;;0.67;0.67;;;;;3.58;95.64;101037.41;4961087;28;44759;-83
2023/02/26 04:13:07;;;;;;;;;5.00;2.67;;;;;3.57;94.59;101039.13;4946267;28;45368;-83
2023/02/26 04:15:33;;;;;;;;;4.00;4.00;;;;;3.54;94.55;101032.84;4944946;28;45332;-83
2023/02/26 04:18:54;;;;;;;;;4.33;4.33;;;;;3.69;94.64;101044.06;4945705;28;45646;-83
2023/02/26 04:21:21;;;;;;;;;1.00;1.00;;;;;3.67;94.42;101055.34;4946381;28;45438;-81
2023/02/26 04:23:47;;;;;;;;;2.67;2.67;;;;;3.66;94.25;101043.94;4933051;28;45363;-81
2023/02/26 04:26:13;;;;;;;;;8.33;4.00;;;;;3.68;93.61;101058.06;4951457;28;45412;-83
2023/02/26 04:28:39;;;;;;;;;5.00;4.00;;;;;3.66;93.72;101049.19;4954026;28;45187;-83
2023/02/26 04:31:05;;;;;;;;;6.00;4.00;;;;;3.68;93.70;101052.81;4967840;28;45407;-83
2023/02/26 04:33:32;;;;;;;;;2.00;2.00;;;;;3.63;93.90;101049.03;4949760;28;45356;-84
2023/02/26 04:35:58;;;;;;;;;2.00;2.00;;;;;3.67;93.22;101061.50;4948390;28;45357;-82
2023/02/26 04:38:24;;;;;;;;;2.67;1.33;;;;;3.60;93.24;101044.53;4948031;28;45464;-84
2023/02/26 04:40:50;;;;;;;;;4.00;4.00;;;;;3.73;93.62;101066.16;4944479;28;45461;-82
2023/02/26 04:43:16;;;;;;;;;1.00;1.00;;;;;3.72;93.38;101060.00;4943688;28;45317;-81
2023/02/26 04:49:04;;;;;;;;;1.00;1.00;;;;;3.63;93.70;101062.19;4944282;28;45024;-83
2023/02/26 04:51:29;;;;;;;;;2.00;1.67;;;;;3.71;93.46;101075.72;4946589;28;45425;-82
2023/02/26 04:53:55;;;;;;;;;4.00;4.00;;;;;3.67;93.94;101065.88;4946704;28;45388;-82
2023/02/26 04:56:21;;;;;;;;;2.67;2.00;;;;;3.68;94.00;101078.22;4944373;28;45534;-81
2023/02/26 05:02:09;;;;;;;;;6.00;5.33;;;;;3.59;94.58;101070.75;4968123;28;44898;-81
2023/02/26 05:04:34;;;;;;;;;4.00;4.00;;;;;3.67;94.03;101086.91;4966387;28;45740;-83
2023/02/26 05:06:59;;;;;;;;;4.00;4.00;;;;;3.62;94.39;101083.19;4967950;28;45489;-83
2023/02/26 05:09:25;;;;;;;;;4.00;4.00;;;;;3.53;95.00;101076.63;4981845;28;46930;-83
2023/02/26 05:11:52;;;;;;;;;5.00;5.00;;;;;3.55;95.36;101087.22;4968145;28;45452;-82
2023/02/26 05:14:17;;;;;;;;;5.67;4.67;;;;;3.48;95.31;101096.56;4968222;28;45372;-82
2023/02/26 05:16:43;;;;;;;;;2.00;2.00;;;;;3.41;95.58;101078.66;4970657;28;45493;-82
2023/02/26 05:19:08;;;;;;;;;5.00;3.33;;;;;3.39;95.65;101086.50;4968182;28;46624;-84
2023/02/26 05:21:34;;;;;;;;;1.67;1.67;;;;;3.45;95.80;101092.88;4968591;28;45355;-82
2023/02/26 05:23:59;;;;;;;;;4.33;4.33;;;;;3.44;95.91;101098.97;4969433;28;45440;-82
2023/02/26 05:26:25;;;;;;;;;7.33;5.33;;;;;3.42;95.91;101096.25;4969735;28;45487;-81
2023/02/26 05:28:51;;;;;;;;;5.00;4.00;;;;;3.44;96.40;101088.44;4967182;28;46223;-83
2023/02/26 05:31:16;;;;;;;;;4.67;4.67;;;;;3.40;96.04;101093.56;4964359;28;45512;-83
2023/02/26 05:33:42;;;;;;;;;5.67;5.67;;;;;3.37;96.84;101087.22;4967434;28;45608;-82
2023/02/26 05:36:11;;;;;;;;;4.00;4.00;;;;;3.43;96.88;101084.00;4969726;28;44941;-83
2023/02/26 05:38:36;;;;;;;;;5.00;5.00;;;;;3.28;97.15;101071.94;4968879;28;45658;-82
2023/02/26 05:41:02;;;;;;;;;11.67;6.00;;;;;3.30;97.88;101086.03;4986311;28;45543;-81
2023/02/26 05:43:27;;;;;;;;;9.00;5.00;;;;;3.26;98.17;101078.84;4970494;28;45345;-82
2023/02/26 05:45:54;;;;;;;;;3.33;3.33;;;;;3.21;98.20;101082.94;4971075;28;45665;-82
2023/02/26 05:48:20;;;;;;;;;5.00;5.00;;;;;3.22;98.63;101087.41;4970980;28;45431;-83
2023/02/26 05:50:47;;;;;;;;;2.67;2.67;;;;;3.17;98.66;101071.41;4971143;28;45246;-82
2023/02/26 05:53:13;;;;;;;;;5.00;5.00;;;;;3.19;99.32;101092.47;4973054;28;45391;-81
2023/02/26 05:55:38;;;;;;;;;6.00;6.00;;;;;3.15;99.22;101091.47;4971310;28;45569;-82
2023/02/26 05:58:05;;;;;;;;;2.67;2.67;;;;;3.19;99.34;101089.84;4971874;28;46842;-83
2023/02/26 06:00:31;;;;;;;;;8.00;4.67;;;;;3.20;99.41;101100.47;4973716;28;45216;-82
2023/02/26 06:02:56;;;;;;;;;7.33;7.33;;;;;3.18;100.00;101104.72;4974676;28;45487;-84
2023/02/26 06:05:24;;;;;;;;;5.67;5.33;;;;;3.24;99.27;101104.16;4970223;28;45711;-82
2023/02/26 06:07:50;;;;;;;;;9.67;8.00;;;;;3.20;99.43;101107.44;4983672;28;47237;-82
2023/02/26 06:10:15;;;;;;;;;6.00;5.00;;;;;3.20;100.00;101112.69;4967685;28;45429;-82
2023/02/26 06:12:41;;;;;;;;;7.33;5.00;;;;;3.16;99.75;101114.28;4965011;28;45349;-83
2023/02/26 06:15:07;;;;;;;;;9.33;9.00;;;;;3.18;100.00;101107.38;4964708;28;45479;-82
2023/02/26 06:17:33;;;;;;;;;5.00;4.67;;;;;3.16;99.98;101114.28;4964593;28;48204;-82
2023/02/26 06:20:02;;;;;;;;;9.00;6.33;;;;;3.23;100.00;101115.47;4965756;28;45267;-83
2023/02/26 06:22:27;;;;;;;;;5.33;5.00;;;;;3.21;100.00;101122.38;4965827;28;45403;-83
2023/02/26 06:24:54;;;;;;;;;5.67;5.67;;;;;3.20;100.00;101112.69;4970033;28;44767;-81
2023/02/26 06:27:20;;;;;;;;;5.00;5.00;;;;;3.13;100.00;101114.13;4986320;28;47130;-83
2023/02/26 06:29:46;;;;;;;;;5.00;5.00;;;;;3.16;100.00;101116.00;4981329;28;45340;-83
2023/02/26 06:32:12;;;;;;;;;5.67;5.67;;;;;3.27;100.00;101137.56;4964357;28;45365;-81
2023/02/26 06:34:38;;;;;;;;;8.00;5.67;;;;;3.12;100.00;101117.56;4964010;28;45809;-82
2023/02/26 06:37:03;;;;;;;;;4.67;4.67;;;;;3.16;100.00;101139.66;4962273;28;47955;-82
2023/02/26 06:39:29;;;;;;;;;6.00;6.00;;;;;3.17;100.00;101146.69;4962150;28;45812;-81
2023/02/26 06:41:54;;;;;;;;;5.67;5.67;;;;;3.16;100.00;101152.81;4981342;28;45533;-84
2023/02/26 06:47:46;;;;;;;;;5.67;5.67;;;;;3.18;100.00;101164.28;4965420;28;45643;-82
2023/02/26 06:50:11;;;;;;;;;5.33;5.33;;;;;3.09;100.00;101179.56;4963672;28;45530;-84
2023/02/26 06:52:37;;;;;;;;;7.67;7.67;;;;;3.05;100.00;101164.47;4963012;28;45379;-81
2023/02/26 06:55:03;;;;;;;;;7.33;7.33;;;;;3.10;100.00;101174.41;4967757;28;45429;-82
2023/02/26 06:57:29;;;;;;;;;5.33;5.00;;;;;3.06;100.00;101172.44;4967784;28;45367;-82
2023/02/26 06:59:54;;;;;;;;;9.00;8.00;;;;;3.05;100.00;101164.47;4981467;28;45872;-84
2023/02/26 07:02:21;;;;;;;;;5.00;5.00;;;;;3.09;100.00;101176.94;4966326;28;45468;-82
2023/02/26 07:04:47;;;;;;;;;4.00;4.00;;;;;3.09;100.00;101175.25;4962840;28;44965;-82
2023/02/26 07:07:13;;;;;;;;;8.00;6.00;;;;;3.17;100.00;101186.13;4961728;28;46764;-82
2023/02/26 07:09:39;;;;;;;;;4.67;3.33;;;;;3.18;100.00;101195.81;4961521;28;45431;-82
2023/02/26 07:12:06;;;;;;;;;8.00;8.00;;;;;3.19;100.00;101190.66;4963419;28;45881;-83
2023/02/26 07:14:33;;;;;;;;;10.67;9.00;;;;;3.18;100.00;101191.47;4963770;28;45393;-81
2023/02/26 07:16:59;;;;;;;;;8.67;7.33;;;;;3.22;100.00;101197.78;4962369;28;47625;-83
2023/02/26 07:19:24;;;;;;;;;7.33;7.33;;;;;3.22;100.00;101191.63;4969205;28;45582;-83
2023/02/26 07:21:50;;;;;;;;;8.00;6.00;;;;;3.10;100.00;101181.41;4966494;28;45451;-83
2023/02/26 07:24:16;;;;;;;;;8.00;5.00;;;;;3.20;100.00;101187.19;4961530;28;45713;-83
2023/02/26 07:26:45;;;;;;;;;13.00;7.33;;;;;3.34;100.00;101214.19;4964072;28;45495;-83
2023/02/26 07:29:10;;;;;;;;;8.33;6.00;;;;;3.27;100.00;101206.78;4965369;28;45878;-82
2023/02/26 07:31:36;;;;;;;;;7.33;6.00;;;;;3.34;100.00;101211.56;4962893;28;44853;-82
2023/02/26 07:34:02;;;;;;;;;9.33;8.00;;;;;3.38;100.00;101215.25;4964630;28;45406;-81
2023/02/26 07:36:27;;;;;;;;;7.33;5.33;;;;;3.44;100.00;101219.91;4963317;28;45407;-81
2023/02/26 07:38:53;;;;;;;;;9.00;8.00;;;;;3.44;100.00;101220.81;4962944;28;45453;-82
2023/02/26 07:41:26;;;;;;;;;5.33;5.33;;;;;3.55;100.00;101223.97;4956111;28;45353;-81
2023/02/26 07:43:51;;;;;;;;;9.00;6.00;;;;;3.47;100.00;101225.31;4948008;28;45478;-82
2023/02/26 07:46:16;;;;;;;;;6.00;5.00;;;;;3.51;100.00;101232.53;4945714;28;45506;-82
2023/02/26 07:48:42;;;;;;;;;5.67;5.67;;;;;3.51;100.00;101216.75;4945815;28;45601;-81
2023/02/26 07:51:09;;;;;;;;;8.33;6.67;;;;;3.53;100.00;101218.63;4947808;28;45426;-83
2023/02/26 07:53:37;;;;;;;;;6.00;6.00;;;;;3.65;100.00;101231.50;4945771;28;45413;-82
2023/02/26 07:56:03;;;;;;;;;10.67;6.00;;;;;3.64;100.00;101226.19;4944990;28;45376;-81
2023/02/26 07:58:29;;;;;;;;;8.00;6.00;;;;;3.68;100.00;101218.50;4945336;28;45529;-82
2023/02/26 08:00:57;;;;;;;;;8.67;8.67;;;;;3.80;100.00;101242.78;4946091;28;45511;-81
2023/02/26 08:03:22;;;;;;;;;8.67;6.00;;;;;3.80;100.00;101232.25;4946706;28;45646;-82
2023/02/26 08:05:48;;;;;;;;;8.00;8.00;;;;;3.76;100.00;101230.31;4943965;28;45987;-81
2023/02/26 08:08:13;;;;;;;;;9.67;9.33;;;;;3.88;100.00;101251.06;4942577;28;45365;-82
2023/02/26 08:10:40;;;;;;;;;5.00;5.00;;;;;3.87;100.00;101238.72;4942600;28;45397;-82
2023/02/26 08:13:06;;;;;;;;;7.33;7.33;;;;;3.86;100.00;101236.00;4944115;28;45689;-83
2023/02/26 08:15:32;;;;;;;;;7.33;7.33;;;;;3.82;100.00;101253.41;4944346;28;47473;-82
2023/02/26 08:18:00;;;;;;;;;6.00;3.33;;;;;3.93;100.00;101240.75;4946298;28;45371;-83
2023/02/26 08:20:25;;;;;;;;;7.33;4.67;;;;;3.86;100.00;101243.91;4945659;28;45449;-82
2023/02/26 08:22:52;;;;;;;;;5.67;5.67;;;;;3.87;100.00;101243.09;4945286;28;45795;-81
2023/02/26 08:25:18;;;;;;;;;8.67;6.00;;;;;3.91;100.00;101250.31;4945439;28;46678;-81
2023/02/26 08:27:43;;;;;;;;;4.67;4.67;;;;;3.97;100.00;101245.34;4943657;28;45728;-82
2023/02/26 08:30:10;;;;;;;;;6.67;6.67;;;;;4.08;100.00;101251.13;4944387;28;45305;-83
2023/02/26 08:32:36;;;;;;;;;5.33;5.33;;;;;4.10;100.00;101258.28;4945806;28;45427;-82
2023/02/26 08:35:01;;;;;;;;;4.67;4.67;;;;;4.07;100.00;101267.75;4945934;28;46717;-82
2023/02/26 08:37:27;;;;;;;;;8.00;6.00;;;;;4.14;99.84;101275.09;4942976;28;45486;-83
2023/02/26 08:39:52;;;;;;;;;5.33;5.33;;;;;4.12;99.19;101260.97;4947530;28;45467;-83
2023/02/26 08:42:21;;;;;;;;;8.33;8.00;;;;;4.25;99.33;101260.75;4945993;28;45625;-83
2023/02/26 08:44:49;;;;;;;;;5.00;5.00;;;;;4.32;98.91;101276.00;4948100;28;47028;-82
2023/02/26 08:47:16;;;;;;;;;1.00;1.00;;;;;4.46;98.44;101279.28;4965119;28;45416;-82
2023/02/26 08:49:42;;;;;;;;;8.33;5.00;;;;;4.43;96.38;101260.72;4950091;28;45656;-82
2023/02/26 08:52:07;;;;;;;;;6.00;6.00;;;;;4.44;95.18;101261.59;4947977;28;45361;-83
2023/02/26 08:54:33;;;;;;;;;5.00;3.33;;;;;4.49;91.93;101299.63;4948363;28;47163;-83
2023/02/26 08:56:58;;;;;;;;;5.33;5.00;;;;;4.38;90.36;101275.38;4964492;28;45826;-81
2023/02/26 08:59:25;;;;;;;;;7.67;4.67;;;;;4.43;90.00;101284.41;4949687;28;44778;-81
2023/02/26 09:01:50;;;;;;;;;4.33;4.33;;;;;4.40;88.60;101292.16;4949933;28;45432;-82
2023/02/26 09:04:16;;;;;;;;;5.00;3.33;;;;;4.34;88.72;101283.97;4948168;28;47286;-83
2023/02/26 09:06:42;;;;;;;;;6.00;6.00;;;;;4.35;88.84;101302.47;4950415;28;44792;-83
2023/02/26 09:09:07;;;;;;;;;2.67;2.67;;;;;4.49;91.36;101300.50;4950104;28;45330;-83
2023/02/26 09:11:35;;;;;;;;;4.00;4.00;;;;;4.66;90.81;101303.03;4951018;28;45659;-83
2023/02/26 09:14:02;;;;;;;;;4.00;4.00;;;;;4.66;89.23;101313.56;4954705;28;45417;-84
2023/02/26 09:16:28;;;;;;;;;5.50;5.50;;;;;4.77;86.98;101307.09;4967082;28;45483;-83
2023/02/26 09:19:00;;;;;;;;;5.00;4.67;;;;;4.85;87.98;101323.22;4971259;28;45571;-81
2023/02/26 09:21:26;;;;;;;;;1.00;1.00;;;;;4.87;86.48;101356.75;4968857;28;45587;-81
2023/02/26 09:23:53;;;;;;;;;4.00;3.33;;;;;4.92;78.24;101334.13;4967797;28;46235;-81
2023/02/26 09:26:18;;;;;;;;;1.67;1.67;;;;;4.88;80.44;101316.38;4968827;28;45821;-82
2023/02/26 09:28:44;;;;;;;;;4.00;4.00;;;;;4.86;80.72;101317.13;4967200;28;45480;-82
2023/02/26 09:31:09;;;;;;;;;1.33;1.33;;;;;4.84;79.44;101309.16;4968587;28;45470;-82
2023/02/26 09:33:35;;;;;;;;;2.00;2.00;;;;;4.71;78.03;101291.00;4966677;28;45755;-82
2023/02/26 09:36:00;;;;;;;;;5.67;5.67;;;;;4.79;75.30;101315.97;4965549;28;45462;-83
2023/02/26 09:38:26;;;;;;;;;1.00;1.00;;;;;4.83;71.67;101315.28;4963110;28;45838;-84
2023/02/26 09:41:00;;;;;;;;;1.33;1.33;;;;;4.91;72.89;101326.16;4967469;28;45399;-83
2023/02/26 09:44:00;;;;;;;;;4.00;1.00;;;;;4.96;72.16;101325.53;4966720;28;47411;-82
2023/02/26 09:46:37;;;;;;;;;1.67;1.33;;;;;5.01;69.31;101338.94;4967078;28;45456;-83
2023/02/26 09:49:20;;;;;;;;;1.00;1.00;;;;;4.82;67.22;101310.81;4966153;28;45429;-83
2023/02/26 09:51:52;;;;;;;;;5.00;4.00;;;;;4.83;70.54;101325.81;4965024;28;45667;-83
2023/02/26 09:54:24;;;;;;;;;1.00;1.00;;;;;4.89;68.67;101328.72;4967012;28;47194;-82
2023/02/26 09:56:57;;;;;;;;;2.00;2.00;;;;;5.02;71.10;101343.38;4980734;28;45404;-82
2023/02/26 09:59:23;;;;;;;;;2.00;1.00;;;;;4.98;68.32;101336.16;4966125;28;45511;-81
2023/02/26 10:02:36;;;;;;;;;4.67;4.67;;;;;5.00;64.90;101340.66;4982040;28;45843;-82
2023/02/26 10:05:05;;;;;;;;;2.00;2.00;;;;;4.98;65.81;101344.97;4930469;28;45400;-82
2023/02/26 10:07:46;;;;;;;;;4.00;4.00;;;;;4.94;62.39;101339.47;4912102;28;45489;-83
2023/02/26 10:10:35;;;;;;;;;2.00;2.00;;;;;4.98;67.31;101325.63;4912651;28;45377;-83
2023/02/26 10:13:02;;;;;;;;;2.33;2.33;;;;;5.08;67.13;101340.13;4927258;28;45511;-83
2023/02/26 10:15:34;;;;;;;;;4.33;4.33;;;;;5.15;70.02;101327.28;4910538;28;47871;-83
2023/02/26 10:18:16;;;;;;;;;5.33;5.00;;;;;5.19;67.47;101328.31;4910955;28;45236;-82
2023/02/26 10:21:00;;;;;;;;;1.00;1.00;;;;;5.30;66.32;101326.19;4910743;28;44767;-82
2023/02/26 10:23:34;;;;;;;;;2.67;2.00;;;;;5.09;60.40;101345.47;4927153;28;45454;-83
2023/02/26 10:26:21;;;;;;;;;3.67;1.00;;;;;5.02;58.48;101348.66;4911564;28;46763;-83
2023/02/26 10:29:10;;;;;;;;;2.67;2.67;;;;;4.97;61.20;101358.97;4929912;28;45646;-82
2023/02/26 10:32:21;;;;;;;;;2.00;2.00;;;;;4.91;56.91;101385.06;4911053;28;45378;-83
2023/02/26 10:34:56;;;;;;;;;1.00;1.00;;;;;4.78;56.30;101366.84;4928631;28;45391;-83
2023/02/26 10:37:57;;;;;;;;;1.00;1.00;;;;;4.83;56.73;101373.25;4951494;28;48061;-83
2023/02/26 10:40:42;;;;;;;;;1.67;1.00;;;;;4.88;57.34;101371.72;4969544;28;45390;-83
2023/02/26 10:43:40;;;;;;;;;2.67;1.33;;;;;4.94;53.92;101372.00;4969858;28;45445;-83
2023/02/26 10:47:04;;;;;;;;;4.00;2.00;;;;;4.91;53.62;101355.13;4951829;28;44973;-82
2023/02/26 10:49:38;;;;;;;;;1.33;1.33;;;;;5.05;54.24;101364.63;4930740;28;45403;-83
2023/02/26 10:52:22;;;;;;;;;1.00;1.00;;;;;5.10;51.51;101375.38;4913532;28;45336;-83
2023/02/26 10:55:18;;;;;;;;;1.00;1.00;;;;;5.08;50.52;101391.09;4910777;28;45278;-82
2023/02/26 10:58:04;;;;;;;;;1.00;1.00;;;;;5.12;50.15;101390.41;4928597;28;45511;-83
2023/02/26 11:00:30;;;;;;;;;1.00;1.00;;;;;5.12;51.81;101366.69;4912153;28;45549;-82
2023/02/26 11:02:57;;;;;;;;;3.00;1.67;;;;;5.33;50.67;101379.06;4910222;28;46027;-83
2023/02/26 11:05:29;;;;;;;;;0.00;0.00;;;;;5.53;51.83;101398.41;4926803;28;45378;-83
2023/02/26 11:08:00;;;;;;;;;2.33;1.00;;;;;5.58;50.28;101381.06;4927723;28;45424;-83
2023/02/26 11:10:37;;;;;;;;;1.67;1.67;;;;;5.68;51.50;101372.72;4908935;28;47714;-81
2023/02/26 11:13:03;;;;;;;;;0.00;0.00;;;;;5.67;49.80;101360.34;4894920;29;45673;-83
2023/02/26 11:15:29;;;;;;;;;1.00;1.00;;;;;5.85;50.86;101372.56;4892927;29;45292;-83
2023/02/26 11:17:58;;;;;;;;;1.00;1.00;;;;;6.02;49.42;101366.31;4908800;29;46068;-82
2023/02/26 11:20:37;;;;;;;;;2.00;1.00;;;;;6.13;50.39;101372.94;4896003;29;47970;-82
2023/02/26 11:23:06;;;;;;;;;1.33;1.33;;;;;5.99;50.89;101358.25;4904903;28;45392;-82
2023/02/26 11:25:34;;;;;;;;;2.00;2.00;;;;;6.15;49.81;101367.72;4949956;28;45411;-82
2023/02/26 11:28:18;;;;;;;;;0.00;0.00;;;;;6.19;49.61;101377.56;4930580;28;45397;-82
2023/02/26 11:30:45;;;;;;;;;0.00;0.00;;;;;6.18;49.29;101371.41;4944188;28;47003;-81
2023/02/26 11:33:24;;;;;;;;;2.00;2.00;;;;;6.34;51.32;101361.44;4964963;28;45427;-81
2023/02/26 11:35:51;;;;;;;;;1.33;1.33;;;;;6.37;50.70;101364.22;4950641;28;45632;-82
2023/02/26 11:38:24;;;;;;;;;1.00;1.00;;;;;6.31;49.02;101377.19;4968204;28;45710;-82
2023/02/26 11:40:54;;;;;;;;;1.00;1.00;;;;;6.29;50.06;101377.13;4965677;28;45652;-82
2023/02/26 11:43:22;;;;;;;;;0.67;0.67;;;;;6.14;48.45;101337.78;4949481;28;45424;-83
2023/02/26 11:45:56;;;;;;;;;2.33;1.67;;;;;6.20;50.39;101337.09;4948498;28;45363;-81
2023/02/26 11:48:25;;;;;;;;;2.67;2.00;;;;;6.21;46.70;101358.31;4948695;28;45504;-82
2023/02/26 11:50:59;;;;;;;;;1.00;1.00;;;;;6.24;47.51;101357.56;4950171;28;45488;-83
2023/02/26 11:53:47;;;;;;;;;0.00;0.00;;;;;5.99;47.37;101316.88;4947069;28;45652;-82
2023/02/26 11:56:29;;;;;;;;;1.67;1.67;;;;;6.16;49.01;101345.72;4966017;28;45353;-83
2023/02/26 11:59:23;;;;;;;;;1.00;1.00;;;;;6.33;47.32;101371.13;4950547;28;45380;-81
2023/02/26 12:01:51;;;;;;;;;1.00;1.00;;;;;6.14;46.35;101311.38;4953668;28;46043;-82
2023/02/26 12:04:24;;;;;;;;;0.67;0.67;;;;;6.35;46.48;101352.69;4950652;28;45549;-82
2023/02/26 12:06:53;;;;;;;;;1.67;1.00;;;;;6.31;45.56;101361.34;4950796;28;45342;-82